Time;durP1;ratioP1;P1;durP2;ratioP2;P2;SDS_P1;SDS_P2;PMS_P1;PMS_P2;Temp;Humidity;BMP_temperature;BMP_pressure;BME280_temperature;BME280_humidity;BME280_pressure;Samples;Min_cycle;Max_cycle;Signal;HPM_P1;HPM_P2
2023/03/26 00:00:15;;;;;;;6.38;2.50;;;;;;;8.62;76.51;100220.50;5174349;28;20061;-81
2023/03/26 00:02:46;;;;;;;0.88;0.88;;;;;;;8.59;76.42;100226.66;5167565;28;20090;-81
2023/03/26 00:05:16;;;;;;;0.50;0.50;;;;;;;8.64;76.54;100232.63;5185845;28;20109;-81
2023/03/26 00:07:47;;;;;;;0.75;0.60;;;;;;;8.62;76.97;100231.81;5203159;28;20034;-81
2023/03/26 00:10:18;;;;;;;1.83;1.52;;;;;;;8.75;76.19;100231.50;5187295;28;20096;-81
2023/03/26 00:12:48;;;;;;;1.85;1.05;;;;;;;8.78;76.10;100232.25;5186733;28;20018;-80
2023/03/26 00:15:19;;;;;;;0.45;0.45;;;;;;;8.71;76.39;100235.94;5174013;28;20086;-80
2023/03/26 00:17:49;;;;;;;2.38;2.17;;;;;;;8.71;76.54;100240.31;5185655;28;20358;-81
2023/03/26 00:20:19;;;;;;;1.77;1.67;;;;;;;8.71;76.81;100235.06;5172118;28;20069;-80
2023/03/26 00:22:50;;;;;;;14.27;1.48;;;;;;;8.81;76.25;100223.47;5156495;28;20496;-82
2023/03/26 00:25:22;;;;;;;0.40;0.40;;;;;;;8.75;76.60;100227.09;5168066;28;20117;-80
2023/03/26 00:27:53;;;;;;;0.30;0.30;;;;;;;8.76;76.46;100226.19;5171343;28;20060;-81
2023/03/26 00:30:24;;;;;;;1.92;0.95;;;;;;;8.72;76.68;100228.94;5187291;28;20038;-81
2023/03/26 00:32:54;;;;;;;1.85;1.75;;;;;;;8.61;77.18;100218.78;5171163;28;20522;-81
2023/03/26 00:35:24;;;;;;;1.27;1.20;;;;;;;8.69;76.70;100222.03;5203111;28;20042;-81
2023/03/26 00:37:57;;;;;;;0.38;0.38;;;;;;;8.61;76.90;100213.53;5180465;28;20037;-81
2023/03/26 00:40:28;;;;;;;0.50;0.50;;;;;;;8.61;77.02;100210.94;5184899;28;20168;-80
2023/03/26 00:42:59;;;;;;;0.30;0.30;;;;;;;8.62;77.26;100210.03;5154828;28;20030;-81
2023/03/26 00:45:30;;;;;;;1.83;0.43;;;;;;;8.64;77.10;100202.97;5169036;28;20045;-81
2023/03/26 00:48:00;;;;;;;1.70;1.60;;;;;;;8.70;76.57;100208.06;5163308;28;20029;-81
2023/03/26 00:50:31;;;;;;;0.38;0.38;;;;;;;8.63;76.74;100203.91;5186098;28;20034;-80
2023/03/26 00:53:01;;;;;;;1.08;1.08;;;;;;;8.60;77.25;100196.13;5186645;28;20025;-81
2023/03/26 00:55:33;;;;;;;6.55;2.58;;;;;;;8.63;76.98;100201.28;5183076;28;20456;-81
2023/03/26 00:58:03;;;;;;;1.15;0.50;;;;;;;8.70;77.05;100197.59;5186627;28;20026;-81
2023/03/26 01:00:35;;;;;;;2.55;1.30;;;;;;;8.61;77.08;100196.09;5169093;28;20044;-81
2023/03/26 01:03:06;;;;;;;0.40;0.40;;;;;;;8.52;77.46;100191.09;5182722;28;20032;-81
2023/03/26 01:05:51;;;;;;;1.05;1.05;;;;;;;8.74;76.67;100188.75;5197390;28;20037;-81
2023/03/26 01:08:37;;;;;;;0.50;0.50;;;;;;;8.75;76.79;100177.41;5170773;28;20091;-81
2023/03/26 01:11:19;;;;;;;0.60;0.60;;;;;;;8.80;76.58;100172.88;5165614;28;20443;-81
2023/03/26 01:13:55;;;;;;;2.90;1.77;;;;;;;8.85;76.53;100179.75;5153982;28;20026;-81
2023/03/26 01:16:40;;;;;;;0.82;0.82;;;;;;;8.84;76.31;100170.19;5185419;28;20038;-82
2023/03/26 01:19:19;;;;;;;0.30;0.30;;;;;;;8.90;75.92;100163.03;5211139;28;20026;-82
2023/03/26 01:21:51;;;;;;;0.52;0.52;;;;;;;8.91;75.87;100156.03;5170977;28;20495;-82
2023/03/26 01:24:21;;;;;;;4.93;1.55;;;;;;;9.03;75.70;100153.06;5169612;28;20037;-81
2023/03/26 01:27:18;;;;;;;4.22;2.05;;;;;;;8.92;75.15;100150.78;5169420;28;20388;-81
2023/03/26 01:29:53;;;;;;;0.50;0.50;;;;;;;8.96;75.27;100155.00;5169497;28;20046;-80
2023/03/26 01:35:17;;;;;;;2.60;1.57;;;;;;;9.06;75.47;100149.50;5160149;28;20050;-83
2023/03/26 01:38:00;;;;;;;0.30;0.30;;;;;;;8.96;74.99;100143.69;5148158;28;20403;-83
2023/03/26 01:40:41;;;;;;;2.17;1.95;;;;;;;9.04;75.48;100139.06;5162776;28;20480;-83
2023/03/26 01:43:16;;;;;;;0.75;0.75;;;;;;;9.04;75.08;100132.97;5143378;28;20026;-83
2023/03/26 01:45:49;;;;;;;0.30;0.30;;;;;;;9.04;74.72;100132.97;5151276;28;20050;-83
2023/03/26 01:48:19;;;;;;;3.47;3.00;;;;;;;9.05;74.57;100130.31;5155890;28;20053;-82
2023/03/26 01:50:55;;;;;;;0.40;0.40;;;;;;;9.06;74.58;100128.56;5165960;28;20030;-82
2023/03/26 01:53:26;;;;;;;5.93;1.27;;;;;;;8.95;74.61;100128.88;5180440;28;20045;-83
2023/03/26 01:56:12;;;;;;;0.40;0.40;;;;;;;8.86;74.60;100126.53;5155630;28;20050;-83
2023/03/26 01:59:01;;;;;;;1.25;1.15;;;;;;;8.90;73.60;100115.94;5148131;28;20041;-83
2023/03/26 02:01:54;;;;;;;1.48;1.38;;;;;;;8.76;73.51;100118.97;5150153;28;20483;-83
2023/03/26 02:04:30;;;;;;;2.53;1.30;;;;;;;8.90;74.03;100109.84;5141655;28;20097;-83
2023/03/26 02:07:08;;;;;;;0.60;0.60;;;;;;;8.97;73.66;100101.75;5148647;28;20026;-83
2023/03/26 02:09:44;;;;;;;0.20;0.20;;;;;;;8.84;73.52;100104.78;5143011;28;20515;-83
2023/03/26 02:12:16;;;;;;;0.30;0.30;;;;;;;8.71;73.38;100099.06;5160049;28;20473;-83
2023/03/26 02:14:48;;;;;;;0.38;0.38;;;;;;;8.58;73.39;100096.81;5147596;28;20570;-83
2023/03/26 02:17:22;;;;;;;0.45;0.45;;;;;;;8.49;74.08;100095.31;5126868;28;20485;-82
2023/03/26 02:19:53;;;;;;;0.30;0.30;;;;;;;8.38;74.09;100086.91;5131698;28;20258;-82
2023/03/26 02:22:28;;;;;;;0.50;0.50;;;;;;;8.40;73.96;100079.84;5131999;28;20054;-83
2023/03/26 02:24:59;;;;;;;0.30;0.30;;;;;;;8.48;73.61;100080.53;5130719;28;20797;-83
2023/03/26 02:27:29;;;;;;;2.85;1.60;;;;;;;8.60;73.71;100076.69;5153127;28;20030;-83
2023/03/26 02:30:01;;;;;;;0.50;0.50;;;;;;;8.67;73.83;100069.53;5151065;28;20616;-83
2023/03/26 02:32:32;;;;;;;0.45;0.38;;;;;;;8.76;73.81;100065.81;5129868;28;20054;-83
2023/03/26 02:35:04;;;;;;;2.20;1.27;;;;;;;8.78;73.56;100061.34;5136466;28;20045;-82
2023/03/26 02:37:35;;;;;;;0.35;0.35;;;;;;;8.81;73.61;100061.28;5163379;28;20124;-83
2023/03/26 02:40:10;;;;;;;0.40;0.40;;;;;;;8.85;74.27;100048.94;5164231;28;20119;-82
2023/03/26 02:42:40;;;;;;;8.73;1.67;;;;;;;8.85;73.86;100041.94;5135408;28;20033;-82
2023/03/26 02:45:11;;;;;;;0.30;0.30;;;;;;;8.85;73.75;100041.94;5133687;28;20034;-82
2023/03/26 02:47:42;;;;;;;2.03;0.95;;;;;;;8.91;73.81;100043.53;5145155;28;20023;-82
2023/03/26 02:50:12;;;;;;;0.98;0.77;;;;;;;8.90;73.52;100028.72;5145151;28;20034;-82
2023/03/26 02:52:44;;;;;;;0.28;0.28;;;;;;;8.94;73.83;100020.75;5156944;28;20647;-82
2023/03/26 02:55:14;;;;;;;0.40;0.40;;;;;;;8.82;73.32;100024.59;5130772;28;20048;-82
2023/03/26 02:57:45;;;;;;;0.30;0.30;;;;;;;8.88;73.32;100018.31;5129350;28;20014;-83
2023/03/26 03:00:16;;;;;;;0.77;0.77;;;;;;;8.91;73.81;100018.25;5146214;28;20109;-82
2023/03/26 03:02:47;;;;;;;0.30;0.30;;;;;;;8.97;73.71;100011.94;5134746;28;20024;-83
2023/03/26 03:05:19;;;;;;;1.30;1.30;;;;;;;8.94;73.45;100007.66;5164428;28;20047;-83
2023/03/26 03:07:49;;;;;;;0.40;0.40;;;;;;;8.96;73.74;100000.63;5147529;28;20031;-82
2023/03/26 03:10:20;;;;;;;1.45;0.75;;;;;;;8.95;73.43;100003.28;5169514;28;20531;-83
2023/03/26 03:12:51;;;;;;;0.30;0.30;;;;;;;8.89;73.37;99995.63;5162206;28;20057;-83
2023/03/26 03:15:21;;;;;;;0.65;0.65;;;;;;;8.89;73.47;99993.88;5121985;28;20378;-82
2023/03/26 03:17:52;;;;;;;1.13;1.10;;;;;;;8.93;73.79;99990.25;5149966;28;20200;-83
2023/03/26 03:20:22;;;;;;;0.30;0.30;;;;;;;8.88;73.30;99983.47;5166790;28;20046;-83
2023/03/26 03:22:52;;;;;;;0.70;0.68;;;;;;;9.04;73.63;99989.03;5136133;28;20038;-82
2023/03/26 03:25:24;;;;;;;7.32;1.27;;;;;;;9.02;73.36;99977.75;5163145;28;20291;-82
2023/03/26 03:27:55;;;;;;;0.65;0.65;;;;;;;8.98;73.44;99974.41;5157533;28;20042;-82
2023/03/26 03:30:29;;;;;;;0.75;0.75;;;;;;;8.97;73.64;99970.06;5137077;28;20113;-83
2023/03/26 03:33:01;;;;;;;0.47;0.47;;;;;;;8.96;73.67;99968.38;5152112;28;20034;-83
2023/03/26 03:35:32;;;;;;;0.40;0.40;;;;;;;8.95;73.88;99969.28;5137337;28;20409;-84
2023/03/26 03:38:03;;;;;;;1.75;1.52;;;;;;;9.01;73.87;99961.22;5164015;28;20030;-83
2023/03/26 03:40:33;;;;;;;0.28;0.28;;;;;;;9.05;73.74;99962.81;5134376;28;20409;-82
2023/03/26 03:43:04;;;;;;;0.20;0.20;;;;;;;9.01;74.04;99961.22;5166090;28;20490;-83
2023/03/26 03:45:37;;;;;;;0.40;0.40;;;;;;;8.95;73.36;99957.03;5140712;28;20096;-82
2023/03/26 03:48:07;;;;;;;0.52;0.52;;;;;;;9.00;73.88;99954.28;5169650;28;20030;-82
2023/03/26 03:50:38;;;;;;;0.22;0.22;;;;;;;9.02;73.98;99948.97;5135428;28;20114;-83
2023/03/26 03:53:14;;;;;;;0.50;0.50;;;;;;;8.97;74.14;99951.75;5135800;28;20034;-83
2023/03/26 03:55:52;;;;;;;0.60;0.60;;;;;;;9.01;74.06;99952.53;5139479;28;20037;-83
2023/03/26 03:58:26;;;;;;;0.30;0.30;;;;;;;8.99;74.19;99942.09;5148402;28;20023;-82
2023/03/26 04:00:59;;;;;;;1.27;1.27;;;;;;;9.07;73.90;99939.25;5140488;28;20042;-82
2023/03/26 04:03:30;;;;;;;1.10;1.10;;;;;;;9.13;73.75;99929.41;5179547;28;20026;-82
2023/03/26 04:06:00;;;;;;;1.00;0.85;;;;;;;9.15;73.37;99921.50;5182596;28;20048;-83
2023/03/26 04:08:32;;;;;;;0.22;0.22;;;;;;;9.15;73.67;99926.75;5141958;28;20046;-83
2023/03/26 04:11:02;;;;;;;0.35;0.35;;;;;;;9.17;73.65;99918.84;5147837;28;20516;-83
2023/03/26 04:13:33;;;;;;;0.85;0.82;;;;;;;9.11;74.02;99912.03;5161903;28;20033;-83
2023/03/26 04:16:04;;;;;;;0.77;0.77;;;;;;;9.20;73.89;99908.28;5151400;28;20035;-83
2023/03/26 04:18:36;;;;;;;16.00;0.82;;;;;;;9.22;73.84;99901.19;5130050;28;20406;-83
2023/03/26 04:21:06;;;;;;;0.30;0.30;;;;;;;9.26;73.69;99895.81;5150313;28;20074;-83
2023/03/26 04:23:38;;;;;;;0.40;0.40;;;;;;;9.19;74.01;99896.09;5152543;28;20060;-82
2023/03/26 04:26:15;;;;;;;0.30;0.30;;;;;;;9.20;74.41;99887.34;5131322;28;20034;-83
2023/03/26 04:28:49;;;;;;;1.90;1.30;;;;;;;9.20;74.32;99882.94;5134541;28;20093;-82
2023/03/26 04:31:23;;;;;;;0.40;0.40;;;;;;;9.19;74.23;99873.38;5143339;28;20057;-82
2023/03/26 04:34:04;;;;;;;0.20;0.20;;;;;;;9.25;74.23;99874.94;5161450;28;20646;-82
2023/03/26 04:36:34;;;;;;;0.25;0.25;;;;;;;9.31;73.38;99868.63;5128412;28;20569;-82
2023/03/26 04:39:05;;;;;;;0.40;0.40;;;;;;;9.27;74.13;99865.28;5146923;28;20035;-81
2023/03/26 04:41:36;;;;;;;0.28;0.28;;;;;;;9.23;74.25;99855.78;5151310;28;20045;-82
2023/03/26 04:44:06;;;;;;;2.67;1.10;;;;;;;9.20;74.45;99856.75;5133863;28;20271;-82
2023/03/26 04:46:42;;;;;;;0.93;0.93;;;;;;;9.21;74.22;99855.03;5154794;28;20053;-83
2023/03/26 04:49:13;;;;;;;1.75;1.65;;;;;;;9.24;74.53;99854.91;5150986;28;20042;-83
2023/03/26 04:51:45;;;;;;;15.75;1.85;;;;;;;9.25;74.17;99854.00;5151885;28;20026;-83
2023/03/26 04:54:20;;;;;;;0.85;0.85;;;;;;;9.23;73.75;99845.31;5183360;28;20034;-83
2023/03/26 04:57:01;;;;;;;1.17;0.95;;;;;;;9.26;73.72;99847.84;5150683;28;20034;-83
2023/03/26 04:59:33;;;;;;;0.95;0.95;;;;;;;9.22;73.83;99843.63;5128052;28;20042;-83
2023/03/26 05:02:05;;;;;;;0.57;0.57;;;;;;;9.07;75.31;99843.25;5151571;28;20050;-82
2023/03/26 05:04:38;;;;;;;2.30;1.20;;;;;;;9.14;74.24;99839.50;5157243;28;20041;-84
2023/03/26 05:07:10;;;;;;;2.35;2.22;;;;;;;9.19;74.24;99844.59;5181613;28;20030;-83
2023/03/26 05:09:40;;;;;;;9.93;2.63;;;;;;;9.18;74.08;99837.63;5131801;28;20104;-83
2023/03/26 05:12:11;;;;;;;0.63;0.63;;;;;;;9.20;73.79;99835.00;5164936;28;20030;-83
2023/03/26 05:14:41;;;;;;;1.15;0.73;;;;;;;9.10;74.55;99835.31;5150818;28;20056;-83
2023/03/26 05:17:14;;;;;;;0.90;0.90;;;;;;;9.16;74.34;99841.22;5141111;28;20046;-82
2023/03/26 05:19:45;;;;;;;0.63;0.63;;;;;;;9.13;74.40;99835.19;5161065;28;20042;-83
2023/03/26 05:22:17;;;;;;;4.15;1.95;;;;;;;9.16;74.59;99825.53;5126943;28;20121;-82
2023/03/26 05:24:47;;;;;;;1.33;1.02;;;;;;;9.12;74.85;99815.19;5146771;28;20045;-82
2023/03/26 05:27:20;;;;;;;1.30;1.20;;;;;;;9.05;75.48;99816.28;5129756;28;20023;-82
2023/03/26 05:29:51;;;;;;;0.70;0.70;;;;;;;8.96;76.26;99800.94;5126979;28;20035;-81
2023/03/26 05:32:21;;;;;;;0.55;0.55;;;;;;;9.05;75.10;99800.56;5145909;28;20044;-82
2023/03/26 05:34:52;;;;;;;2.75;1.17;;;;;;;9.04;75.81;99795.41;5132462;28;20030;-82
2023/03/26 05:37:25;;;;;;;0.85;0.73;;;;;;;9.04;75.45;99793.66;5129082;28;20113;-81
2023/03/26 05:39:57;;;;;;;0.30;0.30;;;;;;;9.03;75.22;99780.63;5149192;28;20043;-82
2023/03/26 05:42:27;;;;;;;0.30;0.30;;;;;;;9.06;75.37;99783.97;5160805;28;20577;-81
2023/03/26 05:44:58;;;;;;;5.05;1.10;;;;;;;9.06;75.31;99776.13;5126062;28;20050;-82
2023/03/26 05:47:29;;;;;;;0.68;0.68;;;;;;;9.11;74.51;99768.97;5131174;28;20018;-82
2023/03/26 05:50:00;;;;;;;10.98;1.27;;;;;;;9.09;75.01;99760.31;5148042;28;20045;-81
2023/03/26 05:52:30;;;;;;;0.40;0.40;;;;;;;9.09;75.47;99749.84;5159258;28;20026;-82
2023/03/26 05:55:01;;;;;;;2.38;1.50;;;;;;;9.11;75.40;99749.78;5131877;28;20034;-82
2023/03/26 05:57:32;;;;;;;0.35;0.35;;;;;;;9.10;74.72;99746.34;5129671;28;20125;-82
2023/03/26 06:00:07;;;;;;;0.63;0.63;;;;;;;9.11;74.85;99740.19;5148761;28;20054;-82
2023/03/26 06:02:37;;;;;;;0.30;0.30;;;;;;;9.11;75.05;99736.72;5144333;28;20095;-82
2023/03/26 06:05:08;;;;;;;0.43;0.43;;;;;;;9.11;75.23;99724.50;5150970;28;20038;-81
2023/03/26 06:07:39;;;;;;;0.52;0.52;;;;;;;9.14;75.21;99729.59;5142710;28;20065;-82
2023/03/26 06:10:09;;;;;;;0.30;0.30;;;;;;;9.17;74.82;99730.41;5131399;28;20598;-81
2023/03/26 06:12:40;;;;;;;0.30;0.30;;;;;;;8.90;78.01;99720.03;5147483;28;20053;-81
2023/03/26 06:15:10;;;;;;;0.30;0.30;;;;;;;9.20;75.68;99714.59;5131612;28;20057;-81
2023/03/26 06:17:41;;;;;;;0.35;0.35;;;;;;;9.02;76.19;99716.97;5133586;28;20114;-81
2023/03/26 06:20:12;;;;;;;0.30;0.30;;;;;;;9.08;75.81;99721.97;5145921;28;20598;-81
2023/03/26 06:22:42;;;;;;;0.63;0.63;;;;;;;9.12;75.48;99713.13;5132702;28;20022;-81
2023/03/26 06:25:13;;;;;;;0.30;0.30;;;;;;;9.17;75.07;99707.72;5150791;28;20262;-82
2023/03/26 06:27:44;;;;;;;0.30;0.30;;;;;;;9.17;75.03;99704.22;5124714;28;20030;-82
2023/03/26 06:30:14;;;;;;;0.40;0.40;;;;;;;9.17;75.19;99709.47;5123631;28;20044;-82
2023/03/26 06:32:45;;;;;;;3.30;1.67;;;;;;;9.20;74.80;99698.88;5146953;28;20089;-83
2023/03/26 06:35:15;;;;;;;0.30;0.30;;;;;;;9.13;75.19;99701.72;5141703;28;20041;-82
2023/03/26 06:37:46;;;;;;;1.05;1.05;;;;;;;9.10;75.94;99704.47;5152543;28;20577;-82
2023/03/26 06:40:16;;;;;;;3.92;0.82;;;;;;;9.11;75.45;99705.31;5139129;28;20046;-82
2023/03/26 06:42:47;;;;;;;1.77;0.73;;;;;;;9.13;75.90;99700.88;5162975;28;20041;-82
2023/03/26 06:45:17;;;;;;;0.28;0.28;;;;;;;9.15;75.86;99709.53;5129260;28;20122;-82
2023/03/26 06:47:48;;;;;;;0.73;0.73;;;;;;;9.17;76.12;99704.22;5133064;28;20018;-82
2023/03/26 06:50:19;;;;;;;0.30;0.30;;;;;;;9.11;76.46;99700.94;5124040;28;20090;-82
2023/03/26 06:52:52;;;;;;;0.30;0.30;;;;;;;9.19;75.72;99703.25;5152851;28;20396;-81
2023/03/26 06:55:23;;;;;;;1.52;1.42;;;;;;;9.22;75.68;99699.66;5138937;28;20034;-81
2023/03/26 06:57:55;;;;;;;0.52;0.52;;;;;;;9.24;75.54;99698.72;5153358;28;20038;-82
2023/03/26 07:00:26;;;;;;;0.57;0.57;;;;;;;9.26;75.52;99693.41;5146217;28;20061;-82
2023/03/26 07:02:56;;;;;;;0.68;0.68;;;;;;;9.23;76.75;99690.91;5165938;28;20030;-82
2023/03/26 07:05:27;;;;;;;0.40;0.40;;;;;;;9.18;76.91;99690.22;5133749;28;20450;-82
2023/03/26 07:07:57;;;;;;;0.20;0.20;;;;;;;9.19;76.19;99687.56;5133145;28;20519;-82
2023/03/26 07:10:28;;;;;;;0.57;0.57;;;;;;;9.23;75.99;99683.91;5166655;28;20073;-82
2023/03/26 07:12:58;;;;;;;0.40;0.40;;;;;;;9.22;76.87;99678.72;5149767;28;20487;-82
2023/03/26 07:15:29;;;;;;;2.05;0.98;;;;;;;9.23;76.01;99676.06;5146523;28;20045;-81
2023/03/26 07:17:59;;;;;;;1.13;1.13;;;;;;;9.26;75.62;99680.31;5163750;28;20037;-81
2023/03/26 07:20:30;;;;;;;0.52;0.52;;;;;;;9.25;75.85;99674.25;5140477;28;20049;-82
2023/03/26 07:23:01;;;;;;;0.50;0.50;;;;;;;9.25;76.14;99670.75;5139206;28;20102;-83
2023/03/26 07:25:34;;;;;;;1.27;1.17;;;;;;;9.24;76.63;99666.44;5153320;28;20061;-83
2023/03/26 07:28:26;;;;;;;0.45;0.45;;;;;;;9.26;76.98;99668.06;5132005;28;20543;-82
2023/03/26 07:31:28;;;;;;;1.20;1.08;;;;;;;9.29;76.17;99656.66;5157409;28;20201;-82
2023/03/26 07:34:40;;;;;;;1.98;1.02;;;;;;;9.28;76.04;99654.94;5148472;28;20518;-82
2023/03/26 07:37:32;;;;;;;0.50;0.50;;;;;;;9.34;76.10;99653.88;5134847;28;20096;-81
2023/03/26 07:40:27;;;;;;;0.32;0.32;;;;;;;9.32;76.43;99646.06;5147225;28;20111;-81
2023/03/26 07:43:01;;;;;;;0.40;0.40;;;;;;;9.33;76.41;99637.28;5144644;28;20503;-82
2023/03/26 07:45:38;;;;;;;0.63;0.63;;;;;;;9.34;76.23;99635.53;5164692;28;20038;-82
2023/03/26 07:48:28;;;;;;;0.30;0.30;;;;;;;9.23;78.94;99634.19;5144951;28;20026;-82
2023/03/26 07:50:59;;;;;;;0.20;0.20;;;;;;;9.24;78.82;99633.28;5163053;28;20034;-82
2023/03/26 07:53:29;;;;;;;0.30;0.30;;;;;;;9.35;76.66;99635.47;5149385;28;20041;-82
2023/03/26 07:56:18;;;;;;;0.30;0.30;;;;;;;9.38;76.48;99629.25;5165006;28;20130;-82
2023/03/26 07:58:48;;;;;;;3.72;2.47;;;;;;;9.31;77.81;99636.50;5146074;28;20023;-83
2023/03/26 08:01:48;;;;;;;0.20;0.20;;;;;;;9.33;77.17;99626.81;5133617;28;20082;-83
2023/03/26 08:04:31;;;;;;;1.35;1.25;;;;;;;9.39;77.41;99626.56;5158229;28;20034;-82
2023/03/26 08:07:09;;;;;;;0.40;0.40;;;;;;;9.29;77.40;99623.47;5146435;28;20030;-82
2023/03/26 08:09:59;;;;;;;0.40;0.40;;;;;;;9.33;77.74;99626.81;5132084;28;20822;-82
2023/03/26 08:13:13;;;;;;;0.50;0.50;;;;;;;9.35;77.40;99625.00;5128230;28;20092;-82
2023/03/26 08:16:06;;;;;;;3.42;1.10;;;;;;;9.41;76.90;99619.50;5159672;28;20034;-82
2023/03/26 08:18:59;;;;;;;0.53;0.50;;;;;;;9.42;76.59;99617.75;5157380;28;20531;-82
2023/03/26 08:21:38;;;;;;;0.20;0.20;;;;;;;9.35;77.34;99621.50;5146297;28;20159;-82
2023/03/26 08:24:26;;;;;;;0.50;0.50;;;;;;;9.39;77.14;99620.50;5149140;28;20033;-83
2023/03/26 08:27:14;;;;;;;0.28;0.28;;;;;;;9.33;77.76;99616.34;5144521;28;20054;-82
2023/03/26 08:30:01;;;;;;;0.20;0.20;;;;;;;9.36;78.65;99621.47;5132880;28;20030;-82
2023/03/26 08:32:31;;;;;;;3.83;2.42;;;;;;;9.38;77.68;99619.63;5125446;28;20027;-83
2023/03/26 08:35:03;;;;;;;0.28;0.28;;;;;;;9.20;79.40;99610.75;5130713;28;20046;-83
2023/03/26 08:37:34;;;;;;;1.63;1.23;;;;;;;9.30;78.00;99616.47;5150691;28;20056;-82
2023/03/26 08:40:05;;;;;;;0.30;0.30;;;;;;;9.38;77.33;99613.56;5133211;28;20046;-82
2023/03/26 08:42:56;;;;;;;1.08;1.00;;;;;;;9.34;77.65;99612.81;5145457;28;20524;-82
2023/03/26 08:45:42;;;;;;;0.30;0.30;;;;;;;9.35;77.23;99606.69;5165499;28;20055;-82
2023/03/26 08:48:38;;;;;;;0.28;0.28;;;;;;;9.09;78.84;99603.31;5147978;28;20030;-81
2023/03/26 08:51:11;;;;;;;0.30;0.30;;;;;;;9.16;78.58;99603.06;5127965;28;20039;-82
2023/03/26 08:54:02;;;;;;;;;;;;;;;9.29;77.36;99605.16;5151616;28;20031;-82
2023/03/26 08:56:52;;;;;;;0.30;0.30;;;;;;;9.33;77.34;99595.41;5129123;28;19976;-82
2023/03/26 08:59:48;;;;;;;0.63;0.63;;;;;;;9.35;76.71;99593.59;5140757;28;20054;-82
2023/03/26 09:02:40;;;;;;;0.57;0.57;;;;;;;9.37;76.49;99591.78;5118128;28;20041;-84
2023/03/26 09:05:29;;;;;;;0.50;0.50;;;;;;;9.38;77.13;99595.22;5127452;28;20050;-84
2023/03/26 09:08:21;;;;;;;0.82;0.82;;;;;;;9.40;77.25;99596.03;5133859;28;20366;-83
2023/03/26 09:11:45;;;;;;;0.20;0.20;;;;;;;9.38;77.23;99588.22;5126229;28;20054;-83
2023/03/26 09:14:54;;;;;;;0.60;0.60;;;;;;;9.39;77.57;99589.06;5142063;28;20404;-84
2023/03/26 09:17:50;;;;;;;0.52;0.52;;;;;;;9.40;77.63;99586.38;5142828;28;20080;-84
2023/03/26 09:20:42;;;;;;;0.20;0.20;;;;;;;9.13;78.42;99586.56;5121962;28;20043;-86
2023/03/26 09:23:44;;;;;;;2.95;1.02;;;;;;;9.22;78.20;99576.66;5162649;28;20306;-83
2023/03/26 09:26:26;;;;;;;0.68;0.68;;;;;;;9.37;77.38;99575.19;5143536;28;20113;-86
2023/03/26 09:29:20;;;;;;;0.40;0.40;;;;;;;9.36;78.06;99574.34;5161570;28;20064;-85
2023/03/26 09:31:56;;;;;;;0.30;0.30;;;;;;;9.27;78.36;99564.25;5157158;23;20045;-87
2023/03/26 09:34:27;;;;;;;0.60;0.60;;;;;;;9.28;78.07;99565.97;5180946;28;20052;-84
2023/03/26 09:37:25;;;;;;;0.30;0.30;;;;;;;9.08;79.63;99564.97;5211467;28;20058;-85
2023/03/26 09:40:17;;;;;;;0.20;0.20;;;;;;;9.26;78.26;99557.31;5178751;28;20034;-87
2023/03/26 09:42:53;;;;;;;0.32;0.32;;;;;;;9.19;78.69;99548.00;5171679;28;20504;-85
2023/03/26 09:45:42;;;;;;;0.28;0.28;;;;;;;8.94;79.12;99552.44;5158094;28;20052;-87
2023/03/26 09:48:28;;;;;;;6.20;1.35;;;;;;;8.91;79.60;99551.69;5183005;28;20026;-84
2023/03/26 09:51:36;;;;;;;0.30;0.30;;;;;;;9.16;78.20;99543.75;5164382;28;20042;-83
2023/03/26 09:54:29;;;;;;;0.50;0.50;;;;;;;9.14;78.09;99540.34;5160024;28;20036;-84
2023/03/26 09:57:20;;;;;;;3.28;0.98;;;;;;;9.12;78.61;99529.94;5164084;28;20034;-85
2023/03/26 09:59:59;;;;;;;0.30;0.30;;;;;;;9.18;77.82;99533.22;5162453;28;20033;-86
2023/03/26 10:02:47;;;;;;;0.22;0.22;;;;;;;9.21;77.63;99526.09;5160478;28;20060;-87
2023/03/26 10:06:05;;;;;;;2.63;1.02;;;;;;;9.33;76.82;99527.34;5166767;28;20262;-87
2023/03/26 10:09:06;;;;;;;0.30;0.30;;;;;;;9.34;76.92;99522.97;5157334;28;20758;-87
2023/03/26 10:12:07;;;;;;;0.50;0.50;;;;;;;9.28;77.41;99529.31;5162843;28;20093;-85
2023/03/26 10:14:48;;;;;;;0.77;0.77;;;;;;;9.31;77.04;99523.94;5164181;28;20052;-89
2023/03/26 10:17:46;;;;;;;0.35;0.35;;;;;;;9.34;76.96;99515.13;5176821;28;20088;-87
2023/03/26 10:20:36;;;;;;;0.30;0.30;;;;;;;9.28;77.00;99516.22;5171673;28;20255;-88
2023/03/26 10:23:28;;;;;;;0.30;0.30;;;;;;;9.02;78.49;99520.75;5145425;28;20616;-88
2023/03/26 10:26:08;;;;;;;0.40;0.40;;;;;;;9.17;77.98;99515.78;5162280;28;20553;-86
2023/03/26 10:28:55;;;;;;;0.30;0.30;;;;;;;9.27;77.55;99517.97;5165754;28;20040;-86
2023/03/26 10:31:35;;;;;;;0.30;0.30;;;;;;;9.35;77.36;99515.06;5168517;28;20146;-87
2023/03/26 10:34:28;;;;;;;0.28;0.28;;;;;;;9.10;79.35;99510.81;5142458;28;20563;-86
2023/03/26 10:37:27;;;;;;;0.30;0.30;;;;;;;9.17;79.29;99508.81;5160504;28;20088;-87
2023/03/26 10:40:41;;;;;;;0.60;0.60;;;;;;;8.99;80.51;99502.53;5173133;28;20062;-85
2023/03/26 10:43:35;;;;;;;0.30;0.30;;;;;;;8.81;81.52;99506.75;5106737;28;20046;-85
2023/03/26 10:46:28;;;;;;;0.30;0.30;;;;;;;8.98;80.75;99503.44;5142177;28;20079;-84
2023/03/26 10:49:23;;;;;;;0.30;0.30;;;;;;;9.02;80.32;99496.31;5158925;28;20027;-84
2023/03/26 10:52:00;;;;;;;0.57;0.57;;;;;;;9.00;79.80;99496.41;5140714;28;20096;-83
2023/03/26 10:54:43;;;;;;;0.35;0.35;;;;;;;8.81;81.02;99489.28;5175654;28;20034;-83
2023/03/26 10:57:34;;;;;;;0.75;0.63;;;;;;;9.01;80.35;99490.25;5143027;28;20572;-83
2023/03/26 11:00:25;;;;;;;0.30;0.30;;;;;;;9.03;80.38;99493.66;5185927;28;20060;-83
2023/03/26 11:03:26;;;;;;;0.30;0.30;;;;;;;9.03;79.89;99487.56;5179537;28;20393;-84
2023/03/26 11:06:08;;;;;;;0.82;0.80;;;;;;;8.98;80.07;99487.75;5161050;28;20069;-85
2023/03/26 11:08:51;;;;;;;0.30;0.30;;;;;;;9.10;79.27;99487.28;5153100;28;20037;-84
2023/03/26 11:12:17;;;;;;;0.30;0.30;;;;;;;8.96;80.43;99492.22;5174107;28;20474;-85
2023/03/26 11:14:52;;;;;;;0.28;0.28;;;;;;;8.82;81.72;99488.38;5148093;28;20049;-88
2023/03/26 11:18:00;;;;;;;0.50;0.50;;;;;;;8.58;83.68;99489.31;5161137;28;20096;-88
2023/03/26 11:20:42;;;;;;;0.35;0.35;;;;;;;8.82;82.11;99490.97;5165080;28;20041;-87
2023/03/26 11:23:25;;;;;;;0.30;0.30;;;;;;;8.58;83.72;99491.94;5143376;28;20118;-84
2023/03/26 11:26:37;;;;;;;0.30;0.30;;;;;;;8.96;81.85;99494.84;5172278;28;20041;-84
2023/03/26 11:29:26;;;;;;;0.85;0.63;;;;;;;9.00;81.60;99488.53;5125838;28;20042;-85
2023/03/26 11:32:09;;;;;;;0.43;0.43;;;;;;;8.53;84.00;99492.13;5176367;28;20487;-83
2023/03/26 11:34:46;;;;;;;0.40;0.40;;;;;;;8.69;84.17;99492.38;5171244;28;20062;-82
2023/03/26 11:37:30;;;;;;;0.77;0.77;;;;;;;8.73;83.68;99490.50;5178519;28;20029;-84
2023/03/26 11:40:10;;;;;;;0.32;0.32;;;;;;;8.96;82.65;99489.59;5146034;28;20038;-87
2023/03/26 11:42:42;;;;;;;0.30;0.30;;;;;;;8.90;82.62;99490.69;5175735;28;20042;-86
2023/03/26 11:45:20;;;;;;;0.55;0.55;;;;;;;8.84;82.97;99492.69;5139532;28;20046;-86
2023/03/26 11:47:56;;;;;;;0.30;0.30;;;;;;;8.62;83.38;99486.53;5169812;28;20141;-84
2023/03/26 11:50:31;;;;;;;0.40;0.40;;;;;;;8.53;83.79;99492.13;5180092;28;20137;-86
2023/03/26 11:53:11;;;;;;;0.40;0.40;;;;;;;8.78;82.77;99492.03;5182975;28;20026;-86
2023/03/26 11:55:47;;;;;;;0.25;0.25;;;;;;;8.98;81.50;99490.38;5151220;28;20461;-84
2023/03/26 11:58:28;;;;;;;0.80;0.80;;;;;;;8.68;83.29;99490.69;5158936;28;20026;-86
2023/03/26 12:01:04;;;;;;;0.40;0.40;;;;;;;8.84;82.15;99493.56;5174886;28;20151;-85
2023/03/26 12:03:37;;;;;;;0.63;0.63;;;;;;;8.80;82.47;99507.66;5161079;28;20106;-85
2023/03/26 12:06:24;;;;;;;0.30;0.30;;;;;;;8.56;83.33;99498.97;5165586;28;20109;-85
2023/03/26 12:08:55;;;;;;;0.30;0.30;;;;;;;8.80;82.20;99495.41;5180356;28;20030;-86
2023/03/26 12:11:30;;;;;;;0.40;0.40;;;;;;;8.70;82.50;99496.72;5167750;28;20064;-86
2023/03/26 12:14:03;;;;;;;0.30;0.30;;;;;;;8.53;84.22;99497.34;5155543;28;20115;-85
2023/03/26 12:16:35;;;;;;;0.30;0.30;;;;;;;8.83;82.32;99497.09;5166418;28;20038;-85
2023/03/26 12:19:18;;;;;;;1.95;1.27;;;;;;;8.85;82.91;99494.41;5191833;28;20041;-85
2023/03/26 12:21:51;;;;;;;0.73;0.73;;;;;;;8.92;82.67;99496.72;5176414;28;20044;-84
2023/03/26 12:24:31;;;;;;;0.40;0.40;;;;;;;8.82;83.29;99495.38;5158989;28;20038;-84
2023/03/26 12:27:29;;;;;;;0.50;0.50;;;;;;;8.62;84.65;99499.59;5183695;28;20030;-85
2023/03/26 12:30:20;;;;;;;0.25;0.25;;;;;;;8.78;83.87;99499.88;5194875;28;20057;-85
2023/03/26 12:32:55;;;;;;;0.50;0.50;;;;;;;9.02;82.93;99497.19;5199661;28;20022;-84